Time;durP1;ratioP1;P1;durP2;ratioP2;P2;SDS_P1;SDS_P2;PMS_P1;PMS_P2;Temp;Humidity;BMP_temperature;BMP_pressure;BME280_temperature;BME280_humidity;BME280_pressure;Samples;Min_cycle;Max_cycle;Signal;HPM_P1;HPM_P2
2021/05/10 00:02:24;;;;;;;1.67;0.90;;;;;;;18.55;46.93;99619.66;128400;1101;62251;-76
2021/05/10 00:04:52;;;;;;;2.03;0.70;;;;;;;18.52;46.82;99620.18;128335;1101;62445;-77
2021/05/10 00:07:18;;;;;;;1.33;0.77;;;;;;;18.48;47.43;99627.92;128411;1101;62145;-76
2021/05/10 00:09:45;;;;;;;2.53;0.90;;;;;;;18.44;47.20;99620.63;128364;1101;62287;-75
2021/05/10 00:12:13;;;;;;;1.23;0.70;;;;;;;18.42;47.77;99622.75;128393;1101;62054;-75
2021/05/10 00:14:42;;;;;;;1.60;0.80;;;;;;;18.37;47.88;99626.20;128412;1101;63208;-75
2021/05/10 00:17:10;;;;;;;1.40;0.87;;;;;;;18.31;47.85;99632.58;128364;1101;62074;-76
2021/05/10 00:19:37;;;;;;;1.63;0.80;;;;;;;18.21;48.43;99630.61;128354;1101;62405;-76
2021/05/10 00:22:04;;;;;;;1.40;0.80;;;;;;;18.13;48.80;99633.73;128434;1101;62298;-75
2021/05/10 00:24:31;;;;;;;1.77;0.83;;;;;;;18.04;48.78;99628.00;128387;1101;62162;-75
2021/05/10 00:26:57;;;;;;;3.07;1.40;;;;;;;17.95;49.62;99631.36;128378;1101;62629;-75
2021/05/10 00:29:24;;;;;;;1.20;0.87;;;;;;;17.85;49.15;99630.17;128332;1101;62392;-75
2021/05/10 00:31:50;;;;;;;1.60;0.77;;;;;;;17.78;49.53;99629.50;128399;1101;62536;-76
2021/05/10 00:34:17;;;;;;;1.47;1.00;;;;;;;17.71;49.72;99628.88;128432;1101;62164;-76
2021/05/10 00:36:45;;;;;;;3.07;0.90;;;;;;;17.63;50.07;99627.42;128373;1101;62256;-75
2021/05/10 00:39:11;;;;;;;1.57;0.90;;;;;;;17.55;50.27;99625.16;128381;1101;62240;-75
2021/05/10 00:41:38;;;;;;;2.20;0.80;;;;;;;17.49;50.44;99623.50;128343;1101;62136;-75
2021/05/10 00:44:05;;;;;;;2.90;0.90;;;;;;;17.43;50.51;99622.60;128365;1101;62287;-74
2021/05/10 00:46:33;;;;;;;1.70;0.93;;;;;;;17.39;51.03;99620.66;128331;1101;62715;-75
2021/05/10 00:49:00;;;;;;;1.63;0.93;;;;;;;17.35;51.09;99614.97;128462;1101;62147;-75
2021/05/10 00:51:26;;;;;;;1.60;1.00;;;;;;;17.30;51.24;99612.23;128372;1101;63448;-75
2021/05/10 00:53:53;;;;;;;4.07;0.93;;;;;;;17.29;51.38;99615.95;128387;1101;62058;-75
2021/05/10 00:56:20;;;;;;;1.90;1.20;;;;;;;17.28;51.32;99607.11;128418;1101;62169;-76
2021/05/10 00:58:50;;;;;;;2.20;0.80;;;;;;;17.28;50.99;99608.98;128346;1101;62695;-76
2021/05/10 01:01:16;;;;;;;1.17;0.77;;;;;;;17.25;50.92;99612.14;128409;1101;62891;-76
2021/05/10 01:03:48;;;;;;;2.40;0.90;;;;;;;17.25;51.04;99612.14;128411;1101;62321;-76
2021/05/10 01:06:14;;;;;;;3.53;1.07;;;;;;;17.22;51.07;99612.64;128363;1101;62284;-75
2021/05/10 01:08:40;;;;;;;1.60;1.00;;;;;;;17.17;50.82;99613.38;128368;1101;62486;-75
2021/05/10 01:11:07;;;;;;;2.30;1.10;;;;;;;17.14;51.23;99613.05;128392;1101;62176;-76
2021/05/10 01:13:34;;;;;;;1.87;0.93;;;;;;;17.09;51.41;99611.91;128396;1101;62330;-76
2021/05/10 01:16:00;;;;;;;2.73;1.00;;;;;;;17.06;51.60;99611.58;128328;1101;62514;-76
2021/05/10 01:18:27;;;;;;;1.73;1.20;;;;;;;17.01;52.07;99615.00;128338;1101;63036;-76
2021/05/10 01:20:55;;;;;;;2.87;1.10;;;;;;;16.97;52.35;99613.05;128376;1101;62552;-76
2021/05/10 01:23:23;;;;;;;1.67;0.63;;;;;;;16.91;52.13;99614.83;128403;1101;62289;-76
2021/05/10 01:25:50;;;;;;;2.30;1.20;;;;;;;16.85;52.37;99605.91;128377;1101;62066;-75
2021/05/10 01:28:17;;;;;;;2.27;1.03;;;;;;;16.80;52.27;99607.66;128427;1101;62852;-75
2021/05/10 01:30:49;;;;;;;4.07;1.13;;;;;;;16.74;52.56;99614.78;128376;1101;62274;-75
2021/05/10 01:33:18;;;;;;;1.80;1.13;;;;;;;16.70;52.88;99613.64;128410;1101;62031;-75
2021/05/10 01:35:47;;;;;;;1.30;0.80;;;;;;;16.66;52.80;99621.36;128398;1101;62497;-75
2021/05/10 01:38:14;;;;;;;6.63;1.10;;;;;;;16.66;52.98;99629.40;128349;1101;62319;-75
2021/05/10 01:40:42;;;;;;;2.27;1.00;;;;;;;16.66;52.60;99624.05;128353;1101;62009;-75
2021/05/10 01:43:09;;;;;;;1.63;0.93;;;;;;;16.68;52.83;99627.30;128400;1101;62252;-75
2021/05/10 01:45:36;;;;;;;2.10;1.00;;;;;;;16.73;52.59;99617.72;128367;1101;62256;-75
2021/05/10 01:48:09;;;;;;;1.70;0.85;;;;;;;16.74;52.64;99619.33;128308;1096;63509;-75
2021/05/10 01:50:38;;;;;;;1.37;0.80;;;;;;;16.76;52.64;99625.27;128390;1101;62354;-75
2021/05/10 01:53:06;;;;;;;2.20;1.10;;;;;;;16.77;52.52;99624.22;128374;1101;62815;-75
2021/05/10 01:55:33;;;;;;;2.47;1.10;;;;;;;16.75;52.70;99631.69;128372;1101;62146;-73
2021/05/10 01:58:02;;;;;;;1.37;0.83;;;;;;;16.73;53.33;99637.28;128399;1101;62168;-76
2021/05/10 02:00:30;;;;;;;2.47;1.00;;;;;;;16.73;53.26;99644.50;128392;1101;63112;-75
2021/05/10 02:03:08;;;;;;;3.67;1.23;;;;;;;16.68;53.83;99635.33;128426;1101;62257;-76
2021/05/10 02:05:35;;;;;;;1.63;0.93;;;;;;;16.65;54.11;99643.02;128376;1101;62202;-75
2021/05/10 02:08:05;;;;;;;1.90;1.00;;;;;;;16.64;54.09;99642.22;128359;1101;62515;-77
2021/05/10 02:10:35;;;;;;;3.93;1.00;;;;;;;16.64;54.02;99647.56;128368;1101;62251;-76
2021/05/10 02:13:08;;;;;;;1.60;0.73;;;;;;;16.68;54.04;99653.23;128375;1101;62296;-76
2021/05/10 02:15:43;;;;;;;2.73;1.30;;;;;;;16.71;54.06;99645.54;128431;1095;62026;-75
2021/05/10 02:18:11;;;;;;;1.90;0.80;;;;;;;16.74;54.05;99649.59;128377;1101;62864;-76
2021/05/10 02:20:40;;;;;;;6.73;2.00;;;;;;;16.75;54.50;99653.11;128326;1101;62753;-75
2021/05/10 02:23:11;;;;;;;1.53;0.97;;;;;;;16.71;54.40;99645.54;128566;1101;62413;-75
2021/05/10 02:25:42;;;;;;;1.67;0.87;;;;;;;16.68;54.54;99654.07;128644;1101;62713;-76
2021/05/10 02:28:11;;;;;;;2.50;1.13;;;;;;;16.63;55.13;99648.61;128434;1101;62993;-75
2021/05/10 02:30:40;;;;;;;1.70;1.10;;;;;;;16.59;54.86;99644.78;128392;1101;62847;-75
2021/05/10 02:33:12;;;;;;;3.03;1.20;;;;;;;16.54;55.50;99646.58;128346;1101;62118;-75
2021/05/10 02:35:39;;;;;;;2.10;0.70;;;;;;;16.48;55.81;99648.34;128394;1101;62343;-75
2021/05/10 02:38:06;;;;;;;2.37;1.07;;;;;;;16.42;55.70;99654.64;128384;1101;62490;-75
2021/05/10 02:40:36;;;;;;;3.03;0.90;;;;;;;16.38;55.93;99653.48;128364;1101;62113;-76
2021/05/10 02:43:04;;;;;;;1.93;1.17;;;;;;;16.34;56.74;99646.98;128372;1101;62415;-75
2021/05/10 02:45:31;;;;;;;2.30;1.17;;;;;;;16.31;56.78;99659.80;128365;1101;62301;-75
2021/05/10 02:47:58;;;;;;;1.80;1.03;;;;;;;16.29;56.42;99661.89;128364;1101;62168;-75
2021/05/10 02:50:27;;;;;;;2.17;1.17;;;;;;;16.27;56.47;99674.70;128360;1101;62448;-76
2021/05/10 02:52:54;;;;;;;4.80;1.20;;;;;;;16.25;56.53;99665.28;128413;1101;62677;-76
2021/05/10 02:55:24;;;;;;;2.77;1.00;;;;;;;16.23;56.40;99662.03;128393;1101;62808;-76
2021/05/10 02:57:54;;;;;;;2.00;1.10;;;;;;;16.19;56.76;99666.23;128399;1101;62205;-76
2021/05/10 03:00:26;;;;;;;1.80;1.07;;;;;;;16.15;56.77;99665.91;128382;1101;63686;-76
2021/05/10 03:02:55;;;;;;;2.07;1.20;;;;;;;16.10;56.68;99660.44;128347;1101;62083;-75
2021/05/10 03:05:25;;;;;;;3.90;1.27;;;;;;;16.04;56.81;99659.52;128397;1101;62474;-76
2021/05/10 03:07:52;;;;;;;3.07;1.13;;;;;;;16.00;57.23;99662.90;128408;1101;62812;-76
2021/05/10 03:10:24;;;;;;;1.60;1.20;;;;;;;15.95;56.97;99665.48;128327;1101;62187;-75
2021/05/10 03:12:53;;;;;;;2.67;1.30;;;;;;;15.91;57.38;99670.48;128387;1101;61848;-76
2021/05/10 03:15:21;;;;;;;2.93;1.33;;;;;;;15.87;57.30;99651.44;128430;1101;62590;-76
2021/05/10 03:17:51;;;;;;;1.70;1.20;;;;;;;15.83;57.66;99634.23;128410;1101;62372;-76
2021/05/10 03:20:19;;;;;;;5.67;1.40;;;;;;;15.80;57.61;99641.90;128381;1101;62886;-75
2021/05/10 03:22:51;;;;;;;2.97;1.40;;;;;;;15.77;58.21;99648.54;128377;1101;63038;-76
2021/05/10 03:25:19;;;;;;;4.23;1.57;;;;;;;15.76;58.22;99657.59;128377;1101;62213;-76
2021/05/10 03:27:46;;;;;;;2.50;1.20;;;;;;;15.74;58.29;99653.53;128387;1101;62235;-75
2021/05/10 03:30:23;;;;;;;2.13;1.00;;;;;;;15.73;58.11;99652.73;128365;1101;62345;-75
2021/05/10 03:32:50;;;;;;;2.20;1.20;;;;;;;15.74;57.87;99648.99;128423;1101;63454;-75
2021/05/10 03:35:17;;;;;;;2.13;1.27;;;;;;;15.74;58.29;99648.99;128390;1101;62634;-75
2021/05/10 03:37:45;;;;;;;3.37;1.40;;;;;;;15.75;58.03;99650.63;128429;1101;63974;-76
2021/05/10 04:26:06;;;;;;;2.90;1.17;;;;;;;16.07;59.25;99618.93;128421;1101;62429;-77
2021/05/10 04:28:36;;;;;;;1.50;1.10;;;;;;;16.12;59.59;99612.86;128381;1101;63024;-77
2021/05/10 04:31:02;;;;;;;3.70;1.40;;;;;;;16.19;59.37;99618.06;128391;1101;62320;-77
2021/05/10 04:33:33;;;;;;;3.60;1.23;;;;;;;16.24;58.82;99616.31;128421;1101;62356;-76
2021/05/10 04:36:00;;;;;;;1.47;0.97;;;;;;;16.32;59.48;99625.84;128407;1101;62135;-76
2021/05/10 04:38:28;;;;;;;4.87;1.30;;;;;;;16.39;59.29;99617.66;128398;1101;61903;-77
2021/05/10 04:40:56;;;;;;;2.47;1.30;;;;;;;16.47;58.66;99618.08;128400;1101;62839;-77
2021/05/10 04:43:23;;;;;;;2.47;1.17;;;;;;;16.57;58.52;99613.95;128401;1101;62026;-77
2021/05/10 04:45:50;;;;;;;2.10;1.30;;;;;;;16.65;58.68;99609.02;128127;1101;62152;-77
2021/05/10 04:48:17;;;;;;;2.10;1.03;;;;;;;16.75;58.50;99607.58;128370;1101;62407;-76
2021/05/10 04:50:43;;;;;;;2.00;1.03;;;;;;;16.84;58.66;99603.47;128400;1101;62104;-75
2021/05/10 04:53:13;;;;;;;2.67;1.23;;;;;;;16.93;58.75;99610.04;128332;1101;62246;-77
2021/05/10 04:55:40;;;;;;;3.90;1.20;;;;;;;17.02;58.30;99600.56;128294;1101;62230;-77
2021/05/10 04:58:07;;;;;;;1.60;1.10;;;;;;;17.14;58.10;99613.86;128423;1102;62701;-76
2021/05/10 05:00:34;;;;;;;2.50;1.23;;;;;;;17.24;58.26;99614.02;128343;1101;62033;-76
2021/05/10 05:03:01;;;;;;;2.53;1.73;;;;;;;17.38;57.66;99622.52;128400;1101;62536;-76
2021/05/10 05:05:27;;;;;;;2.07;1.10;;;;;;;17.52;57.69;99625.67;128383;1102;62375;-76
2021/05/10 05:07:54;;;;;;;2.00;1.03;;;;;;;17.65;57.33;99624.50;128335;1101;62311;-76
2021/05/10 05:10:21;;;;;;;2.13;1.27;;;;;;;17.79;57.26;99630.33;128440;1101;62182;-76
2021/05/10 05:12:49;;;;;;;2.80;1.30;;;;;;;17.89;57.13;99635.84;128344;1101;62224;-76
2021/05/10 05:15:16;;;;;;;2.87;1.37;;;;;;;17.95;57.16;99634.84;128403;1101;63091;-77
2021/05/10 05:17:45;;;;;;;2.10;1.23;;;;;;;18.02;57.09;99640.85;128116;1102;62342;-77
2021/05/10 05:20:11;;;;;;;2.30;1.03;;;;;;;18.07;57.26;99634.73;128348;1101;64319;-73
2021/05/10 05:22:39;;;;;;;2.70;1.40;;;;;;;18.11;57.22;99633.17;128391;1101;62235;-76
2021/05/10 05:25:07;;;;;;;2.13;0.97;;;;;;;18.14;56.96;99622.72;128149;1101;62157;-75
2021/05/10 05:27:34;;;;;;;2.23;1.33;;;;;;;18.19;57.07;99618.48;128389;1101;62312;-72
2021/05/10 05:30:03;;;;;;;1.50;1.07;;;;;;;18.22;57.15;99616.11;128303;1101;62800;-72
2021/05/10 05:32:30;;;;;;;2.67;1.20;;;;;;;18.26;57.66;99630.66;128392;1101;62779;-72
2021/05/10 05:34:58;;;;;;;2.17;1.10;;;;;;;18.27;58.51;99624.20;128346;1101;62176;-73
2021/05/10 05:37:25;;;;;;;3.33;1.23;;;;;;;18.26;58.29;99603.81;128396;1101;62256;-73
2021/05/10 05:39:53;;;;;;;3.77;1.40;;;;;;;18.26;58.78;99595.75;128387;1101;62046;-73
2021/05/10 05:42:20;;;;;;;1.77;1.10;;;;;;;18.24;58.73;99595.20;128379;1101;63303;-73
2021/05/10 05:44:51;;;;;;;3.10;1.20;;;;;;;18.21;59.08;99601.08;128332;1101;64315;-73
2021/05/10 05:47:24;;;;;;;2.20;1.30;;;;;;;18.20;59.21;99588.70;128119;1101;63649;-73
2021/05/10 05:49:55;;;;;;;3.70;1.50;;;;;;;18.19;59.71;99560.26;128423;1101;62261;-73
2021/05/10 05:52:22;;;;;;;4.20;1.50;;;;;;;18.19;59.17;99537.95;128335;1101;63196;-73
2021/05/10 05:54:52;;;;;;;4.50;1.30;;;;;;;18.20;58.72;99535.02;128119;1101;62615;-73
2021/05/10 05:57:19;;;;;;;3.57;1.30;;;;;;;18.26;58.39;99538.58;128393;1101;62407;-73
2021/05/10 05:59:47;;;;;;;2.77;1.70;;;;;;;18.31;58.18;99542.09;128366;1101;62077;-72
2021/05/10 06:02:13;;;;;;;2.77;1.23;;;;;;;18.39;57.96;99556.95;128390;1101;62529;-73
2021/05/10 06:04:40;;;;;;;2.67;1.70;;;;;;;18.47;58.14;99582.55;128396;1101;62140;-73
2021/05/10 06:07:06;;;;;;;4.23;1.10;;;;;;;18.54;57.93;99593.88;128445;1101;62169;-72
2021/05/10 06:09:33;;;;;;;3.37;1.40;;;;;;;18.62;57.55;99601.48;128348;1101;62161;-73
2021/05/10 06:11:59;;;;;;;3.47;1.27;;;;;;;18.66;58.19;99602.59;128401;1101;62267;-73
2021/05/10 06:14:25;;;;;;;2.03;0.90;;;;;;;18.71;58.47;99629.48;128100;1101;63295;-73
2021/05/10 06:16:52;;;;;;;2.83;1.37;;;;;;;18.73;58.37;99637.30;128397;1101;62013;-74
2021/05/10 06:19:19;;;;;;;4.20;1.73;;;;;;;18.73;58.32;99646.16;128168;1101;62393;-73
2021/05/10 06:21:45;;;;;;;4.03;1.47;;;;;;;18.75;58.34;99649.41;128226;1101;62571;-74
2021/05/10 06:24:12;;;;;;;2.57;1.30;;;;;;;18.77;58.27;99640.30;128380;1101;62184;-73
2021/05/10 06:26:40;;;;;;;3.83;1.53;;;;;;;18.79;57.84;99641.69;128311;1101;62500;-73
2021/05/10 06:29:07;;;;;;;1.93;1.20;;;;;;;18.84;57.75;99641.72;128394;1101;62742;-73
2021/05/10 06:31:33;;;;;;;2.93;1.50;;;;;;;18.91;57.42;99652.26;128479;1101;62180;-73
2021/05/10 06:34:02;;;;;;;5.47;1.93;;;;;;;18.96;57.47;99655.01;128464;1101;63619;-73
2021/05/10 06:36:29;;;;;;;9.30;2.17;;;;;;;19.01;57.46;99662.30;128434;1101;62377;-73
2021/05/10 06:38:55;;;;;;;3.63;1.60;;;;;;;19.07;57.12;99661.28;128434;1101;62211;-73
2021/05/10 06:41:22;;;;;;;8.80;3.53;;;;;;;19.13;56.86;99658.37;128429;1101;62178;-73
2021/05/10 06:43:49;;;;;;;4.00;1.57;;;;;;;19.21;56.52;99650.89;128401;1101;62219;-74
2021/05/10 06:46:15;;;;;;;1.70;1.10;;;;;;;19.29;56.50;99655.79;128445;1101;61938;-74
2021/05/10 06:48:42;;;;;;;2.97;1.30;;;;;;;19.39;56.17;99658.56;128307;1101;62160;-73
2021/05/10 06:51:09;;;;;;;2.53;1.17;;;;;;;19.54;55.63;99669.41;128405;1101;62702;-74
2021/05/10 06:53:35;;;;;;;6.13;1.47;;;;;;;19.68;55.44;99677.84;128416;1101;62165;-73
2021/05/10 06:56:02;;;;;;;3.13;1.60;;;;;;;19.85;55.39;99677.70;128300;1101;62821;-72
2021/05/10 06:58:28;;;;;;;28.70;18.13;;;;;;;20.06;54.35;99672.41;128329;1101;62353;-72
2021/05/10 07:00:56;;;;;;;6.27;2.50;;;;;;;20.28;54.43;99686.51;128350;1101;62073;-72
2021/05/10 07:03:23;;;;;;;3.47;1.70;;;;;;;20.47;53.00;99689.53;128328;1101;62059;-72
2021/05/10 07:05:50;;;;;;;3.33;1.50;;;;;;;20.68;52.96;99693.13;128294;1101;62046;-73
2021/05/10 07:08:18;;;;;;;4.50;1.70;;;;;;;20.88;52.60;99694.23;128463;1101;62743;-73
2021/05/10 07:10:47;;;;;;;3.23;1.40;;;;;;;21.09;52.59;99690.47;128471;1101;62092;-73
2021/05/10 07:13:13;;;;;;;5.20;1.90;;;;;;;21.27;51.92;99680.22;128495;1101;62104;-73
2021/05/10 07:15:40;;;;;;;3.13;1.43;;;;;;;21.43;51.07;99687.25;128413;1101;62887;-73
2021/05/10 07:18:09;;;;;;;5.70;3.03;;;;;;;21.56;50.58;99683.99;128474;1101;62210;-73
2021/05/10 07:20:37;;;;;;;4.93;1.30;;;;;;;21.66;50.46;99695.88;128431;1101;62076;-73
2021/05/10 07:23:07;;;;;;;13.07;7.00;;;;;;;21.71;49.63;99695.84;128393;1101;62491;-72
2021/05/10 07:25:35;;;;;;;8.70;2.57;;;;;;;21.73;49.57;99699.89;128320;1101;62242;-73
2021/05/10 07:28:02;;;;;;;5.53;1.90;;;;;;;21.73;49.00;99709.88;128184;1102;62465;-73
2021/05/10 07:30:29;;;;;;;4.33;1.60;;;;;;;21.68;48.25;99712.60;128218;1101;61687;-73
2021/05/10 07:32:55;;;;;;;3.60;1.30;;;;;;;21.61;48.67;99722.85;128424;1101;62446;-73
2021/05/10 07:35:22;;;;;;;3.20;1.83;;;;;;;21.55;48.89;99730.97;128192;1101;62262;-72
2021/05/10 07:37:49;;;;;;;5.17;3.13;;;;;;;21.52;49.57;99739.59;128400;1101;62324;-73
2021/05/10 07:40:20;;;;;;;3.00;1.47;;;;;;;21.53;49.69;99741.22;128374;1101;62077;-73
2021/05/10 07:42:47;;;;;;;3.23;1.20;;;;;;;21.50;47.90;99749.84;128469;1101;61975;-73
2021/05/10 07:45:13;;;;;;;5.93;1.80;;;;;;;21.47;47.16;99758.48;128428;1101;62479;-72
2021/05/10 07:47:40;;;;;;;4.47;1.30;;;;;;;21.47;46.44;99763.88;128419;1101;62207;-72
2021/05/10 07:50:07;;;;;;;5.37;1.50;;;;;;;21.49;45.86;99764.42;128454;1101;62191;-72
2021/05/10 07:52:33;;;;;;;1.50;0.90;;;;;;;21.58;46.12;99752.00;128469;1101;62142;-71
2021/05/10 07:55:02;;;;;;;3.83;1.20;;;;;;;21.67;45.03;99760.36;128457;1101;62014;-71
2021/05/10 07:57:28;;;;;;;4.80;1.00;;;;;;;21.72;44.36;99764.97;128478;1101;62043;-72
2021/05/10 07:59:55;;;;;;;3.03;1.20;;;;;;;21.81;44.61;99774.13;128418;1101;62636;-72
2021/05/10 08:02:23;;;;;;;3.20;1.30;;;;;;;21.86;44.27;99768.70;128443;1101;62248;-71
2021/05/10 08:04:52;;;;;;;6.60;1.40;;;;;;;21.94;44.57;99757.35;128456;1101;62655;-72
2021/05/10 08:07:20;;;;;;;3.93;1.20;;;;;;;21.98;44.55;99771.92;128506;1101;62227;-72
2021/05/10 08:09:47;;;;;;;2.53;1.20;;;;;;;22.00;44.01;99774.36;128427;1101;62084;-72
2021/05/10 08:12:14;;;;;;;2.20;1.17;;;;;;;22.02;44.12;99771.40;128394;1101;64221;-72
2021/05/10 08:14:41;;;;;;;2.17;1.13;;;;;;;22.03;43.70;99764.90;128408;1101;62234;-71
2021/05/10 08:17:08;;;;;;;3.77;1.00;;;;;;;22.07;43.34;99768.67;128448;1101;62230;-72
2021/05/10 08:19:35;;;;;;;1.60;1.10;;;;;;;22.14;43.52;99763.78;128402;1101;62049;-73
2021/05/10 08:22:05;;;;;;;3.30;1.10;;;;;;;22.22;43.79;99760.52;128432;1101;63884;-73
2021/05/10 08:24:32;;;;;;;4.33;1.20;;;;;;;22.32;44.02;99759.72;128345;1101;62318;-70
2021/05/10 08:26:58;;;;;;;3.20;1.03;;;;;;;22.41;43.99;99747.25;128380;1101;62368;-71
2021/05/10 08:29:25;;;;;;;3.40;1.17;;;;;;;22.52;44.21;99754.22;128450;1101;62283;-71
2021/05/10 08:31:52;;;;;;;2.10;1.10;;;;;;;22.67;44.13;99758.73;128471;1101;62049;-70
2021/05/10 08:34:19;;;;;;;3.50;1.30;;;;;;;22.74;44.74;99745.75;128436;1101;62418;-71
2021/05/10 08:36:46;;;;;;;2.17;1.00;;;;;;;22.85;44.52;99748.39;128471;1101;62085;-71
2021/05/10 08:39:13;;;;;;;3.00;1.10;;;;;;;23.00;45.24;99754.53;128448;1101;62014;-72
2021/05/10 08:41:41;;;;;;;4.07;1.10;;;;;;;23.19;45.28;99765.50;128445;1101;62168;-72
2021/05/10 08:44:09;;;;;;;2.93;1.90;;;;;;;23.38;45.16;99770.24;128454;1101;62069;-72
2021/05/10 08:46:40;;;;;;;2.23;0.80;;;;;;;23.55;45.09;99765.22;128462;1101;62129;-72
2021/05/10 08:49:07;;;;;;;5.50;1.63;;;;;;;23.75;44.75;99758.80;128428;1101;62336;-72
2021/05/10 08:51:37;;;;;;;2.90;1.20;;;;;;;23.93;43.45;99760.02;128499;1101;62460;-72
2021/05/10 08:54:20;;;;;;;3.20;1.25;;;;;;;24.08;43.78;99755.52;128433;1101;62266;-72
2021/05/10 08:56:46;;;;;;;4.70;1.80;;;;;;;24.10;41.33;99742.49;128445;1101;62166;-72
2021/05/10 08:59:13;;;;;;;6.27;1.37;;;;;;;24.13;40.43;99748.16;128388;1101;62783;-72
2021/05/10 09:01:48;;;;;;;3.53;1.20;;;;;;;24.19;40.44;99751.62;128444;1101;62429;-72
2021/05/10 09:04:15;;;;;;;2.37;1.13;;;;;;;24.26;41.10;99740.42;128446;1101;62124;-72
2021/05/10 09:06:42;;;;;;;2.43;0.97;;;;;;;24.39;41.88;99737.80;128384;1101;63187;-72
2021/05/10 09:09:10;;;;;;;1.20;0.80;;;;;;;24.53;42.94;99739.86;128432;1101;62329;-72
2021/05/10 09:11:54;;;;;;;3.13;1.10;;;;;;;24.64;41.83;99746.75;128463;1101;62884;-72
2021/05/10 09:14:36;;;;;;;3.55;1.73;;;;;;;24.72;40.99;99743.39;128453;1101;62041;-72
2021/05/10 09:17:03;;;;;;;2.90;1.10;;;;;;;24.78;41.66;99747.64;128429;1101;62233;-72
2021/05/10 09:19:49;;;;;;;1.47;0.70;;;;;;;24.82;41.77;99742.42;128425;1101;61991;-72
2021/05/10 09:22:16;;;;;;;1.43;0.80;;;;;;;25.00;41.68;99738.11;128430;1101;62347;-72
2021/05/10 09:24:48;;;;;;;3.37;1.10;;;;;;;25.16;40.65;99741.38;128367;1101;62363;-72
2021/05/10 09:27:27;;;;;;;2.87;0.97;;;;;;;25.38;40.47;99738.09;128412;1101;62367;-73
2021/05/10 09:30:22;;;;;;;1.97;1.00;;;;;;;25.56;39.88;99745.36;128317;1101;62901;-73
2021/05/10 09:32:55;;;;;;;1.83;1.20;;;;;;;25.77;38.60;99750.44;128479;1101;61940;-73
2021/05/10 09:35:27;;;;;;;2.23;0.93;;;;;;;25.84;38.27;99746.23;128414;1101;62155;-73
2021/05/10 09:38:02;;;;;;;3.90;2.10;;;;;;;26.00;37.42;99741.34;128366;1101;62761;-73
2021/05/10 09:40:41;;;;;;;1.67;0.90;;;;;;;26.19;38.51;99743.16;128272;1101;62290;-73
2021/05/10 09:43:09;;;;;;;2.03;0.83;;;;;;;26.43;38.21;99732.85;128458;1101;62300;-73
2021/05/10 09:45:38;;;;;;;3.07;1.50;;;;;;;26.68;38.12;99735.38;128223;1101;63662;-73
2021/05/10 09:48:07;;;;;;;2.73;1.20;;;;;;;26.79;35.91;99744.91;128566;1101;61903;-73
2021/05/10 09:50:38;;;;;;;2.13;1.00;;;;;;;26.89;35.54;99735.73;128434;1101;62023;-73
2021/05/10 09:53:06;;;;;;;1.73;1.07;;;;;;;26.86;35.41;99726.23;128436;1101;62739;-73
2021/05/10 09:55:54;;;;;;;2.70;1.00;;;;;;;26.99;35.34;99724.58;128463;1101;62188;-73
2021/05/10 09:58:24;;;;;;;3.53;0.87;;;;;;;26.94;34.71;99722.78;128464;1101;62051;-73
2021/05/10 10:00:58;;;;;;;2.20;1.00;;;;;;;26.93;34.91;99715.75;128437;1101;62140;-73
2021/05/10 10:03:29;;;;;;;2.87;1.17;;;;;;;26.98;35.40;99725.70;128474;1101;62251;-73
2021/05/10 10:05:58;;;;;;;1.87;0.80;;;;;;;26.99;35.27;99708.25;128411;1101;62281;-73
2021/05/10 10:08:26;;;;;;;8.07;6.53;;;;;;;27.03;35.35;99703.80;128456;1101;62062;-73
2021/05/10 10:10:54;;;;;;;4.77;0.90;;;;;;;27.24;37.16;99710.41;128371;1101;63079;-72
2021/05/10 10:13:21;;;;;;;2.37;0.83;;;;;;;27.39;36.54;99722.83;128426;1101;62263;-73
2021/05/10 10:15:48;;;;;;;1.83;0.80;;;;;;;27.45;36.37;99723.49;128244;1102;62224;-73
2021/05/10 10:18:26;;;;;;;3.43;1.10;;;;;;;27.31;33.76;99723.58;128190;1102;62877;-73
2021/05/10 10:20:56;;;;;;;4.17;1.20;;;;;;;27.04;32.84;99725.27;128463;1101;62343;-73
2021/05/10 10:23:24;;;;;;;2.93;1.20;;;;;;;27.01;33.32;99739.52;128448;1101;62766;-73
2021/05/10 10:25:52;;;;;;;2.10;0.97;;;;;;;26.85;33.28;99733.60;128488;1101;62017;-73
2021/05/10 10:28:21;;;;;;;3.10;1.13;;;;;;;26.92;32.97;99730.45;128470;1101;62245;-73
2021/05/10 10:30:52;;;;;;;3.63;1.17;;;;;;;26.91;33.48;99733.50;128413;1101;62385;-72
2021/05/10 10:33:47;;;;;;;3.67;1.00;;;;;;;27.13;34.77;99722.61;128153;1101;62166;-72
2021/05/10 10:36:27;;;;;;;3.23;1.20;;;;;;;27.49;33.36;99732.65;128423;1101;62048;-72
2021/05/10 10:39:10;;;;;;;3.83;1.77;;;;;;;27.64;34.08;99734.97;128327;1101;62438;-72
2021/05/10 10:41:53;;;;;;;3.23;1.30;;;;;;;27.82;34.73;99724.97;128401;1101;63930;-73
2021/05/10 10:44:33;;;;;;;3.40;1.20;;;;;;;28.02;33.71;99711.92;128380;1101;62783;-73
2021/05/10 10:47:01;;;;;;;2.70;1.10;;;;;;;28.16;34.75;99695.43;128331;1101;62303;-71
2021/05/10 10:49:33;;;;;;;3.27;1.00;;;;;;;28.10;33.40;99707.63;128361;1101;62297;-72
2021/05/10 10:52:01;;;;;;;3.43;1.50;;;;;;;27.95;33.36;99722.50;128393;1101;63311;-73
2021/05/10 10:54:29;;;;;;;2.47;0.90;;;;;;;28.03;32.84;99722.52;128477;1101;62838;-73
2021/05/10 10:56:59;;;;;;;2.13;0.90;;;;;;;28.33;33.60;99725.50;128442;1101;62213;-74
2021/05/10 10:59:35;;;;;;;2.17;1.00;;;;;;;28.44;32.76;99729.52;128479;1101;62089;-74
2021/05/10 11:02:26;;;;;;;3.23;0.87;;;;;;;28.63;32.29;99714.82;128465;1101;62031;-75
2021/05/10 11:05:10;;;;;;;2.13;1.10;;;;;;;28.73;31.41;99724.60;128471;1101;62347;-73
2021/05/10 11:07:58;;;;;;;2.97;1.00;;;;;;;28.62;32.00;99732.30;128457;1101;62072;-73
2021/05/10 11:10:49;;;;;;;3.03;1.00;;;;;;;28.58;31.85;99739.52;128401;1101;62200;-75
2021/05/10 11:13:28;;;;;;;2.77;1.17;;;;;;;28.54;31.61;99735.81;128451;1101;62123;-75
2021/05/10 11:16:02;;;;;;;2.47;1.10;;;;;;;28.37;30.26;99750.19;128453;1101;62274;-75
2021/05/10 11:18:32;;;;;;;;;;;;;;;28.07;30.39;99763.58;128498;1101;62187;-75
2021/05/10 11:20:59;;;;;;;2.60;1.00;;;;;;;27.80;30.77;99764.56;128410;1101;63372;-75
2021/05/10 11:23:26;;;;;;;4.20;1.10;;;;;;;27.75;31.01;99757.30;128421;1101;62198;-76
2021/05/10 11:25:58;;;;;;;3.03;0.97;;;;;;;27.62;31.85;99763.65;128403;1101;62047;-75
2021/05/10 11:28:24;;;;;;;2.47;1.10;;;;;;;27.59;31.89;99765.09;128495;1101;62283;-75
2021/05/10 11:31:03;;;;;;;2.30;1.00;;;;;;;27.57;31.76;99761.86;128405;1101;62914;-76
2021/05/10 11:33:51;;;;;;;1.87;0.80;;;;;;;27.58;32.21;99762.66;128490;1101;62748;-76
2021/05/10 11:36:27;;;;;;;2.03;1.00;;;;;;;27.52;32.54;99770.18;128410;1101;63865;-76
2021/05/10 11:38:57;;;;;;;2.23;1.00;;;;;;;27.45;32.88;99767.87;128438;1101;62502;-76
2021/05/10 11:41:35;;;;;;;3.87;1.30;;;;;;;27.38;32.55;99763.98;128469;1101;62497;-74
2021/05/10 11:44:06;;;;;;;3.60;0.93;;;;;;;27.43;32.20;99789.16;128463;1101;62020;-75
2021/05/10 11:46:41;;;;;;;2.87;1.10;;;;;;;27.35;32.32;99792.66;128396;1101;63651;-75
2021/05/10 11:49:33;;;;;;;2.87;0.90;;;;;;;27.38;32.76;99781.13;128420;1101;62073;-76
2021/05/10 11:52:01;;;;;;;5.20;1.43;;;;;;;27.51;32.70;99787.63;128439;1101;62318;-77
2021/05/10 11:54:29;;;;;;;3.07;1.03;;;;;;;27.45;31.79;99797.83;128465;1101;62165;-77
2021/05/10 11:57:00;;;;;;;4.40;1.07;;;;;;;27.42;32.15;99782.12;128480;1101;61997;-76
2021/05/10 11:59:46;;;;;;;2.00;0.80;;;;;;;27.49;32.64;99794.50;128434;1101;63203;-77
2021/05/10 12:02:18;;;;;;;3.40;1.00;;;;;;;27.57;32.41;99805.45;128240;1101;62352;-78
2021/05/10 12:04:48;;;;;;;4.70;1.37;;;;;;;27.77;31.58;99804.13;128426;1101;62101;-76
2021/05/10 12:07:17;;;;;;;1.77;0.77;;;;;;;27.76;31.28;99823.53;128156;1101;62476;-78
2021/05/10 12:10:01;;;;;;;1.40;0.90;;;;;;;27.95;31.62;99813.25;128373;1101;63457;-77
2021/05/10 12:12:30;;;;;;;2.13;0.88;;;;;;;28.06;31.71;99813.78;128182;1101;62280;-77
2021/05/10 12:15:16;;;;;;;2.40;0.80;;;;;;;28.19;30.80;99825.70;128331;1101;62561;-75
2021/05/10 12:17:51;;;;;;;3.00;0.80;;;;;;;28.35;30.03;99818.72;128437;1101;62235;-76
2021/05/10 12:20:22;;;;;;;1.30;0.60;;;;;;;28.49;30.63;99818.63;128372;1101;62542;-76
2021/05/10 12:22:53;;;;;;;4.33;0.77;;;;;;;28.47;30.20;99829.02;128406;1101;62130;-76